createdAt,value
2018-05-31T00:01:05.739Z,23.10
2018-05-31T00:03:33.694Z,23.30
2018-05-31T00:06:01.691Z,23.40
2018-05-31T00:08:29.705Z,23.30
2018-05-31T00:10:57.644Z,23.40
2018-05-31T00:13:26.346Z,23.60
2018-05-31T00:15:54.368Z,23.60
2018-05-31T00:18:22.346Z,23.40
2018-05-31T00:20:50.375Z,23.70
2018-05-31T00:23:18.347Z,23.50
2018-05-31T00:25:46.331Z,23.40
2018-05-31T00:28:14.308Z,23.30
2018-05-31T00:30:42.272Z,23.20
2018-05-31T00:33:10.239Z,23.20
2018-05-31T00:35:38.197Z,23.20
2018-05-31T00:38:06.214Z,23.10
2018-05-31T00:40:34.203Z,22.90
2018-05-31T00:43:02.948Z,22.90
2018-05-31T00:45:30.904Z,22.90
2018-05-31T00:47:58.931Z,23.00
2018-05-31T00:50:27.637Z,22.90
2018-05-31T00:52:55.610Z,22.90
2018-05-31T00:55:35.484Z,22.90
2018-05-31T00:58:03.482Z,22.80
2018-05-31T01:00:31.453Z,22.90
2018-05-31T01:02:59.438Z,22.80
2018-05-31T01:05:27.436Z,22.60
2018-05-31T01:07:55.424Z,22.70
2018-05-31T01:10:23.382Z,22.60
2018-05-31T01:12:51.363Z,22.50
2018-05-31T01:15:19.373Z,22.60
2018-05-31T01:17:47.420Z,22.60
2018-05-31T01:20:15.393Z,22.70
2018-05-31T01:22:43.379Z,22.60
2018-05-31T01:25:11.391Z,22.80
2018-05-31T01:27:39.429Z,22.90
2018-05-31T01:30:07.403Z,22.90
2018-05-31T01:32:35.347Z,22.80
2018-05-31T01:35:03.334Z,22.70
2018-05-31T01:37:31.338Z,22.50
2018-05-31T01:39:59.326Z,22.40
2018-05-31T01:42:27.295Z,22.40
2018-05-31T01:44:55.258Z,22.40
2018-05-31T01:47:23.201Z,22.50
2018-05-31T01:49:51.996Z,22.60
2018-05-31T01:52:20.690Z,22.60
2018-05-31T01:54:49.393Z,22.50
2018-05-31T01:57:17.377Z,22.50
2018-05-31T01:59:45.352Z,22.60
2018-05-31T02:02:13.297Z,22.60
2018-05-31T02:04:41.323Z,22.80
2018-05-31T02:07:09.336Z,22.80
2018-05-31T02:09:38.039Z,23.00
2018-05-31T02:12:06.109Z,22.90
2018-05-31T02:14:34.077Z,22.90
2018-05-31T02:17:02.020Z,22.90
2018-05-31T02:19:30.763Z,22.80
2018-05-31T02:21:58.729Z,22.70
2018-05-31T02:24:26.695Z,22.60
2018-05-31T02:26:54.653Z,22.60
2018-05-31T02:29:22.646Z,22.60
2018-05-31T02:31:50.622Z,22.60
2018-05-31T02:34:18.602Z,22.70
2018-05-31T02:36:46.589Z,22.80
2018-05-31T02:39:15.327Z,22.80
2018-05-31T02:41:43.314Z,22.80
2018-05-31T02:44:11.241Z,23.00
2018-05-31T02:46:39.222Z,23.00
2018-05-31T02:49:07.202Z,23.10
2018-05-31T02:51:35.161Z,23.10
2018-05-31T02:54:03.187Z,23.00
2018-05-31T02:56:31.174Z,22.70
2018-05-31T02:58:59.918Z,22.50
2018-05-31T03:01:27.883Z,22.50
2018-05-31T03:03:55.847Z,22.20
2018-05-31T03:06:23.828Z,22.00
2018-05-31T03:08:51.782Z,22.20
2018-05-31T03:11:19.793Z,22.20
2018-05-31T03:13:47.763Z,22.10
2018-05-31T03:16:15.718Z,22.20
2018-05-31T03:18:43.745Z,22.20
2018-05-31T03:21:11.756Z,22.00
2018-05-31T03:23:39.688Z,21.90
2018-05-31T03:26:07.677Z,22.00
2018-05-31T03:28:35.632Z,22.00
2018-05-31T03:31:03.660Z,22.10
2018-05-31T03:33:31.689Z,22.10
2018-05-31T03:35:59.679Z,22.00
2018-05-31T03:38:28.758Z,22.10
2018-05-31T03:40:57.701Z,22.20
2018-05-31T03:43:26.487Z,22.10
2018-05-31T03:45:54.500Z,22.00
2018-05-31T03:48:23.482Z,22.00
2018-05-31T03:50:52.325Z,21.80
2018-05-31T03:53:20.354Z,21.80
2018-05-31T03:55:48.415Z,21.80
2018-05-31T03:58:16.431Z,21.70
2018-05-31T04:00:44.414Z,21.70
2018-05-31T04:03:13.158Z,21.80
2018-05-31T04:05:41.118Z,21.80
2018-05-31T04:08:09.106Z,21.70
2018-05-31T04:10:37.893Z,21.50
2018-05-31T04:13:05.873Z,21.50
2018-05-31T04:15:33.856Z,21.60
2018-05-31T04:18:01.949Z,21.60
2018-05-31T04:20:30.697Z,21.90
2018-05-31T04:22:58.650Z,21.90
2018-05-31T04:25:26.650Z,21.90
2018-05-31T04:27:54.615Z,22.00
2018-05-31T04:30:22.568Z,22.00
2018-05-31T04:32:50.567Z,22.00
2018-05-31T04:35:18.547Z,21.90
2018-05-31T04:37:46.504Z,22.00
2018-05-31T04:40:14.454Z,22.10
2018-05-31T04:42:42.393Z,22.20
2018-05-31T04:45:10.375Z,22.30
2018-05-31T04:47:38.357Z,22.30
2018-05-31T04:50:06.354Z,22.20
2018-05-31T04:52:34.320Z,22.20
2018-05-31T04:55:02.294Z,22.20
2018-05-31T04:57:30.258Z,22.20
2018-05-31T04:59:58.233Z,22.30
2018-05-31T05:02:26.263Z,22.40
2018-05-31T05:04:54.255Z,22.40
2018-05-31T05:07:22.226Z,22.30
2018-05-31T05:09:50.202Z,22.50
2018-05-31T05:12:18.164Z,22.30
2018-05-31T05:14:46.944Z,22.70
2018-05-31T05:17:15.114Z,22.70
2018-05-31T05:19:43.073Z,22.60
2018-05-31T05:22:11.045Z,22.70
2018-05-31T05:24:39.003Z,22.70
2018-05-31T05:27:06.967Z,22.80
2018-05-31T05:29:34.923Z,22.90
2018-05-31T05:32:03.011Z,23.00
2018-05-31T05:34:31.024Z,23.00
2018-05-31T05:36:58.966Z,23.00
2018-05-31T05:39:26.971Z,23.10
2018-05-31T05:41:54.916Z,22.90
2018-05-31T05:44:22.896Z,22.90
2018-05-31T05:46:50.880Z,23.10
2018-05-31T05:49:18.838Z,23.20
2018-05-31T05:51:46.896Z,23.30
2018-05-31T05:54:14.899Z,23.40
2018-05-31T05:56:42.865Z,23.30
2018-05-31T05:59:10.869Z,23.40
2018-05-31T06:01:38.856Z,23.60
2018-05-31T06:04:06.825Z,23.70
2018-05-31T06:06:34.825Z,23.70
2018-05-31T06:09:02.872Z,23.70
2018-05-31T06:11:30.835Z,23.80
2018-05-31T06:13:58.778Z,23.80
2018-05-31T06:16:27.525Z,23.70
2018-05-31T06:18:56.260Z,24.00
2018-05-31T06:21:24.996Z,24.00
2018-05-31T06:23:52.958Z,24.00
2018-05-31T06:26:20.928Z,23.80
2018-05-31T06:28:48.929Z,23.90
2018-05-31T06:31:16.900Z,23.90
2018-05-31T06:33:44.881Z,24.00
2018-05-31T06:36:13.645Z,24.30
2018-05-31T06:38:41.611Z,24.30
2018-05-31T06:41:09.547Z,24.40
2018-05-31T06:43:37.504Z,24.50
2018-05-31T06:46:06.214Z,24.40
2018-05-31T06:48:34.141Z,24.40
2018-05-31T06:51:02.162Z,24.50
2018-05-31T06:53:30.139Z,24.70
2018-05-31T06:55:58.100Z,24.60
2018-05-31T06:58:26.076Z,24.70
2018-05-31T07:00:54.108Z,24.80
2018-05-31T07:03:22.091Z,24.60
2018-05-31T07:05:50.060Z,24.60
2018-05-31T07:08:18.014Z,24.90
2018-05-31T07:10:46.731Z,24.90
2018-05-31T07:13:14.698Z,24.90
2018-05-31T07:15:42.677Z,25.00
2018-05-31T07:18:11.073Z,24.80
2018-05-31T07:20:43.322Z,24.80
2018-05-31T07:23:11.689Z,24.80
2018-05-31T07:25:39.625Z,24.70
2018-05-31T07:28:07.631Z,24.90
2018-05-31T07:30:35.577Z,24.80
2018-05-31T07:33:04.291Z,24.90
2018-05-31T07:35:32.236Z,24.90
2018-05-31T07:38:01.115Z,25.30
2018-05-31T07:40:29.883Z,25.40
2018-05-31T07:42:57.850Z,25.30
2018-05-31T07:45:25.930Z,25.50
2018-05-31T07:47:53.945Z,25.60
2018-05-31T07:50:21.964Z,25.50
2018-05-31T07:52:49.934Z,25.70
2018-05-31T07:55:17.884Z,25.70
2018-05-31T07:57:45.825Z,25.40
2018-05-31T08:00:13.777Z,25.40
2018-05-31T08:02:42.499Z,25.30
2018-05-31T08:05:10.482Z,25.30
2018-05-31T08:07:38.428Z,25.80
2018-05-31T08:10:06.474Z,25.80
2018-05-31T08:12:35.190Z,26.20
2018-05-31T08:15:03.236Z,26.10
2018-05-31T08:17:31.990Z,26.20
2018-05-31T08:19:59.967Z,26.20
2018-05-31T08:22:27.942Z,26.20
2018-05-31T08:24:55.889Z,26.30
2018-05-31T08:27:23.865Z,26.00
2018-05-31T08:29:51.826Z,26.30
2018-05-31T08:32:19.774Z,26.30
2018-05-31T08:34:47.711Z,26.50
2018-05-31T08:37:16.428Z,26.70
2018-05-31T08:39:44.390Z,26.70
2018-05-31T08:42:12.361Z,26.80
2018-05-31T08:44:40.336Z,26.60
2018-05-31T08:47:08.252Z,26.80
2018-05-31T08:49:36.261Z,26.50
2018-05-31T08:52:04.252Z,26.70
2018-05-31T08:54:32.206Z,26.50
2018-05-31T08:57:00.162Z,26.50
2018-05-31T08:59:28.112Z,26.80
2018-05-31T09:01:56.849Z,26.60
2018-05-31T09:04:24.829Z,26.60
2018-05-31T09:06:53.666Z,26.60
2018-05-31T09:09:22.459Z,26.30
2018-05-31T09:11:50.416Z,26.30
2018-05-31T09:14:19.142Z,26.30
2018-05-31T09:16:47.212Z,26.30
2018-05-31T09:19:15.207Z,26.50
2018-05-31T09:21:43.136Z,26.70
2018-05-31T09:24:11.093Z,26.50
2018-05-31T09:26:39.832Z,26.50
2018-05-31T09:29:07.822Z,26.50
2018-05-31T09:31:35.862Z,27.10
2018-05-31T09:34:03.850Z,27.40
2018-05-31T09:36:31.796Z,27.10
2018-05-31T09:38:59.733Z,26.80
2018-05-31T09:41:28.501Z,27.10
2018-05-31T09:43:56.455Z,27.10
2018-05-31T09:46:24.410Z,27.20
2018-05-31T09:48:52.368Z,27.10
2018-05-31T09:51:20.317Z,27.20
2018-05-31T09:53:48.254Z,27.10
2018-05-31T09:56:16.982Z,27.80
2018-05-31T09:58:44.924Z,27.80
2018-05-31T10:01:13.674Z,27.60
2018-05-31T10:03:41.631Z,27.60
2018-05-31T10:06:09.608Z,27.60
2018-05-31T10:08:37.551Z,27.90
2018-05-31T10:11:05.515Z,28.00
2018-05-31T10:13:33.442Z,28.00
2018-05-31T10:16:02.175Z,28.40
2018-05-31T10:18:30.154Z,28.40
2018-05-31T10:20:58.100Z,28.30
2018-05-31T10:23:26.051Z,28.30
2018-05-31T10:25:55.148Z,28.30
2018-05-31T10:28:23.859Z,28.30
2018-05-31T10:30:51.823Z,28.30
2018-05-31T10:33:19.751Z,28.10
2018-05-31T10:35:47.691Z,27.80
2018-05-31T10:38:15.675Z,28.30
2018-05-31T10:40:43.659Z,28.40
2018-05-31T10:43:11.594Z,28.40
2018-05-31T10:45:39.519Z,28.20
2018-05-31T10:48:08.310Z,28.10
2018-05-31T10:50:37.006Z,27.90
2018-05-31T10:53:05.020Z,27.90
2018-05-31T10:55:32.976Z,27.90
2018-05-31T10:58:00.927Z,28.20
2018-05-31T11:00:28.910Z,28.70
2018-05-31T11:02:56.875Z,29.00
2018-05-31T11:05:24.848Z,29.60
2018-05-31T11:07:52.869Z,28.60
2018-05-31T11:10:21.596Z,28.50
2018-05-31T11:12:49.555Z,28.50
2018-05-31T11:15:17.521Z,28.30
2018-05-31T11:17:45.494Z,29.00
2018-05-31T11:20:13.441Z,29.50
2018-05-31T11:22:42.148Z,29.60
2018-05-31T11:25:10.129Z,29.50
2018-05-31T11:27:38.087Z,28.50
2018-05-31T11:30:06.044Z,28.50
2018-05-31T11:32:34.764Z,28.70
2018-05-31T11:37:45.566Z,28.90
2018-05-31T11:40:13.483Z,29.00
2018-05-31T11:42:42.244Z,29.00
2018-05-31T11:45:10.232Z,29.10
2018-05-31T11:47:39.179Z,29.00
2018-05-31T11:50:07.560Z,29.00
2018-05-31T11:52:35.508Z,29.10
2018-05-31T11:55:03.469Z,29.00
2018-05-31T11:57:31.471Z,28.90
2018-05-31T12:02:56.634Z,29.00
2018-05-31T12:05:24.675Z,28.80
2018-05-31T12:07:52.717Z,29.00
2018-05-31T12:10:20.739Z,29.00
2018-05-31T12:12:48.801Z,29.40
2018-05-31T12:15:16.853Z,29.40
2018-05-31T12:17:45.711Z,29.60
2018-05-31T12:20:15.989Z,29.50
2018-05-31T12:22:44.036Z,29.20
2018-05-31T12:25:12.018Z,29.20
2018-05-31T12:27:40.849Z,29.60
2018-05-31T12:30:09.593Z,29.50
2018-05-31T12:32:37.554Z,29.40
2018-05-31T12:35:05.538Z,29.50
2018-05-31T12:37:33.536Z,29.80
2018-05-31T12:40:03.255Z,30.30
2018-05-31T12:42:32.014Z,30.60
2018-05-31T12:45:00.012Z,30.60
2018-05-31T12:47:28.798Z,30.40
2018-05-31T12:49:57.517Z,30.40
2018-05-31T12:52:25.495Z,30.40
2018-05-31T12:54:53.434Z,31.10
2018-05-31T12:57:22.241Z,30.00
2018-05-31T12:59:50.195Z,30.00
2018-05-31T13:02:18.210Z,29.70
2018-05-31T13:04:46.199Z,30.10
2018-05-31T13:07:14.178Z,30.40
2018-05-31T13:09:42.179Z,30.70
2018-05-31T13:12:10.912Z,30.70
2018-05-31T13:14:38.863Z,30.70
2018-05-31T13:17:08.538Z,30.80
2018-05-31T13:19:37.281Z,32.00
2018-05-31T13:22:05.292Z,32.00
2018-05-31T13:24:33.995Z,32.30
2018-05-31T13:27:01.932Z,32.30
2018-05-31T13:29:29.865Z,32.20
2018-05-31T13:31:57.858Z,31.90
2018-05-31T13:34:25.845Z,32.70
2018-05-31T13:36:53.806Z,32.50
2018-05-31T13:39:21.745Z,32.20
2018-05-31T13:41:49.721Z,32.30
2018-05-31T13:44:17.719Z,33.10
2018-05-31T13:46:45.767Z,32.60
2018-05-31T13:49:13.832Z,31.30
2018-05-31T13:51:41.840Z,31.20
2018-05-31T13:54:10.596Z,31.90
2018-05-31T13:56:38.669Z,31.90
2018-05-31T13:59:06.830Z,32.60
2018-05-31T14:01:34.783Z,33.30
2018-05-31T14:04:02.887Z,33.90
2018-05-31T14:06:30.937Z,34.30
2018-05-31T14:08:58.894Z,33.00
2018-05-31T14:11:26.888Z,33.70
2018-05-31T14:13:54.841Z,34.40
2018-05-31T14:16:22.848Z,33.50
2018-05-31T14:18:52.156Z,33.20
2018-05-31T14:21:20.206Z,32.50
2018-05-31T14:23:48.152Z,31.70
2018-05-31T14:26:16.197Z,32.30
2018-05-31T14:28:44.899Z,33.30
2018-05-31T14:31:12.888Z,33.30
2018-05-31T14:33:40.827Z,32.80
2018-05-31T14:36:09.526Z,32.40
2018-05-31T14:38:37.525Z,32.40
2018-05-31T14:41:05.503Z,33.20
2018-05-31T14:43:33.486Z,33.90
2018-05-31T14:46:01.479Z,33.90
2018-05-31T14:48:30.201Z,34.30
2018-05-31T14:50:58.214Z,34.30
2018-05-31T14:53:26.248Z,34.70
2018-05-31T14:55:54.162Z,33.60
2018-05-31T14:58:22.117Z,33.20
2018-05-31T15:00:50.062Z,33.10
2018-05-31T15:03:17.994Z,32.90
2018-05-31T15:05:46.728Z,32.40
2018-05-31T15:08:14.703Z,32.40
2018-05-31T15:10:42.653Z,32.30
2018-05-31T15:13:10.655Z,31.20
2018-05-31T15:15:38.621Z,31.30
2018-05-31T15:18:06.601Z,31.20
2018-05-31T15:20:34.627Z,30.80
2018-05-31T15:23:03.204Z,30.40
2018-05-31T15:25:31.158Z,30.50
2018-05-31T15:27:59.859Z,30.50
2018-05-31T15:30:27.833Z,30.50
2018-05-31T15:32:55.785Z,30.40
2018-05-31T15:35:24.507Z,30.60
2018-05-31T15:37:53.811Z,30.50
2018-05-31T15:40:21.853Z,31.10
2018-05-31T15:42:49.786Z,30.60
2018-05-31T15:45:17.756Z,30.70
2018-05-31T15:47:45.743Z,31.00
2018-05-31T15:50:14.463Z,31.20
2018-05-31T15:52:42.472Z,31.20
2018-05-31T15:55:10.505Z,31.80
2018-05-31T15:57:38.718Z,31.90
2018-05-31T16:00:06.751Z,32.00
2018-05-31T16:02:34.671Z,31.10
2018-05-31T16:05:02.588Z,30.80
2018-05-31T16:07:30.605Z,30.70
2018-05-31T16:09:58.537Z,30.60
2018-05-31T16:12:26.465Z,30.60
2018-05-31T16:14:55.190Z,29.60
2018-05-31T16:17:23.191Z,29.60
2018-05-31T16:19:51.140Z,29.30
2018-05-31T16:22:19.129Z,29.20
2018-05-31T16:24:47.068Z,29.20
2018-05-31T16:27:15.158Z,29.00
2018-05-31T16:29:43.132Z,28.60
2018-05-31T16:32:11.077Z,28.60
2018-05-31T16:34:39.052Z,28.40
2018-05-31T16:37:07.003Z,28.50
2018-05-31T16:39:35.023Z,28.50
2018-05-31T16:42:03.046Z,28.40
2018-05-31T16:44:31.082Z,28.40
2018-05-31T16:46:59.066Z,28.40
2018-05-31T16:49:27.802Z,28.00
2018-05-31T16:51:55.848Z,28.00
2018-05-31T16:54:23.830Z,28.20
2018-05-31T16:56:51.804Z,28.10
2018-05-31T16:59:19.842Z,28.10
2018-05-31T17:01:48.874Z,27.70
2018-05-31T17:04:16.830Z,27.70
2018-05-31T17:06:44.819Z,27.70
2018-05-31T17:09:12.752Z,27.70
2018-05-31T17:11:40.708Z,27.40
2018-05-31T17:14:09.457Z,27.40
2018-05-31T17:16:37.393Z,27.30
2018-05-31T17:19:05.352Z,27.50
2018-05-31T17:21:33.367Z,27.20
2018-05-31T17:24:01.383Z,27.30
2018-05-31T17:26:30.091Z,26.90
2018-05-31T17:28:58.082Z,26.90
2018-05-31T17:31:26.076Z,26.90
2018-05-31T17:33:54.587Z,26.70
2018-05-31T17:36:23.388Z,26.70
2018-05-31T17:38:51.307Z,26.60
2018-05-31T17:41:19.271Z,26.90
2018-05-31T17:43:47.256Z,26.90
2018-05-31T17:46:15.260Z,26.90
2018-05-31T17:48:44.114Z,26.80
2018-05-31T17:51:12.140Z,26.80
2018-05-31T17:53:40.123Z,26.90
2018-05-31T17:56:08.082Z,26.70
2018-05-31T17:58:36.077Z,26.70
2018-05-31T18:01:04.044Z,26.70
2018-05-31T18:03:31.999Z,26.70
2018-05-31T18:05:59.927Z,26.70
2018-05-31T18:08:28.641Z,26.60
2018-05-31T18:10:56.610Z,26.60
2018-05-31T18:13:24.592Z,26.70
2018-05-31T18:15:52.826Z,26.70
2018-05-31T18:18:21.596Z,26.50
2018-05-31T18:20:49.575Z,26.50
2018-05-31T18:23:17.546Z,26.40
2018-05-31T18:25:45.503Z,26.50
2018-05-31T18:28:13.481Z,26.50
2018-05-31T18:30:41.408Z,26.70
2018-05-31T18:33:09.366Z,26.60
2018-05-31T18:35:37.318Z,26.40
2018-05-31T18:38:06.047Z,26.40
2018-05-31T18:40:34.011Z,26.30
2018-05-31T18:43:01.974Z,26.40
2018-05-31T18:45:29.907Z,26.40
2018-05-31T18:47:58.630Z,26.30
2018-05-31T18:50:26.674Z,26.30
2018-05-31T18:52:54.656Z,26.30
2018-05-31T18:55:22.655Z,26.20
2018-05-31T18:57:50.629Z,26.40
2018-05-31T19:00:18.585Z,26.20
2018-05-31T19:02:46.546Z,26.30
2018-05-31T19:05:14.504Z,26.20
2018-05-31T19:07:42.435Z,26.20
2018-05-31T19:10:11.175Z,26.30
2018-05-31T19:12:44.759Z,26.20
2018-05-31T19:15:21.630Z,26.30
2018-05-31T19:17:41.550Z,26.20
2018-05-31T19:20:10.590Z,26.20
2018-05-31T19:22:39.300Z,26.40
2018-05-31T19:25:12.806Z,26.40
2018-05-31T19:27:40.736Z,26.30
2018-05-31T19:30:14.272Z,26.40
2018-05-31T19:32:42.193Z,26.20
2018-05-31T19:35:15.904Z,26.00
2018-05-31T19:37:43.964Z,25.80
2018-05-31T19:40:11.934Z,25.70
2018-05-31T19:42:45.698Z,25.50
2018-05-31T19:45:13.711Z,25.40
2018-05-31T19:47:41.797Z,25.30
2018-05-31T19:50:10.534Z,25.40
2018-05-31T19:52:43.976Z,25.40
2018-05-31T19:55:12.035Z,25.40
2018-05-31T19:57:45.844Z,25.30
2018-05-31T20:00:19.411Z,25.30
2018-05-31T20:02:53.078Z,25.10
2018-05-31T20:05:21.894Z,24.60
2018-05-31T20:07:49.866Z,24.60
2018-05-31T20:10:17.794Z,24.80
2018-05-31T20:12:46.520Z,25.20
2018-05-31T20:15:14.478Z,25.20
2018-05-31T20:17:42.460Z,25.30
2018-05-31T20:20:10.449Z,25.20
2018-05-31T20:22:38.412Z,25.30
2018-05-31T20:25:06.525Z,25.40
2018-05-31T20:27:34.498Z,25.30
2018-05-31T20:30:02.620Z,25.30
2018-05-31T20:32:30.617Z,25.30
2018-05-31T20:34:58.601Z,25.30
2018-05-31T20:37:26.550Z,24.90
2018-05-31T20:39:54.500Z,24.90
2018-05-31T20:42:22.469Z,24.90
2018-05-31T20:44:50.447Z,25.00
2018-05-31T20:47:18.398Z,24.90
2018-05-31T20:49:46.378Z,24.80
2018-05-31T20:52:14.335Z,25.00
2018-05-31T20:54:42.269Z,25.00
2018-05-31T20:57:11.012Z,24.60
2018-05-31T20:59:39.040Z,24.60
2018-05-31T21:02:07.753Z,24.60
2018-05-31T21:04:35.695Z,24.50
2018-05-31T21:07:04.473Z,24.40
2018-05-31T21:09:32.468Z,24.40
2018-05-31T21:12:00.418Z,24.20
2018-05-31T21:14:29.168Z,24.20
2018-05-31T21:16:57.181Z,24.20
2018-05-31T21:19:25.918Z,24.10
2018-05-31T21:21:53.852Z,24.10
2018-05-31T21:24:21.855Z,24.10
2018-05-31T21:26:49.813Z,23.90
2018-05-31T21:29:17.777Z,23.80
2018-05-31T21:31:45.720Z,23.80
2018-05-31T21:34:14.490Z,23.80
2018-05-31T21:36:42.397Z,23.80
2018-05-31T21:39:10.353Z,23.70
2018-05-31T21:41:39.063Z,23.70
2018-05-31T21:44:07.018Z,23.70
2018-05-31T21:46:35.009Z,23.60
2018-05-31T21:49:03.010Z,23.50
2018-05-31T21:51:31.025Z,23.80
2018-05-31T21:53:58.954Z,24.00
2018-05-31T21:56:26.907Z,24.00
2018-05-31T21:58:54.812Z,24.10
2018-05-31T22:01:22.817Z,24.10
2018-05-31T22:03:51.534Z,24.00
2018-05-31T22:06:19.477Z,24.00
2018-05-31T22:08:47.427Z,24.00
2018-05-31T22:11:15.434Z,24.10
2018-05-31T22:13:44.164Z,24.10
2018-05-31T22:16:12.108Z,24.10
2018-05-31T22:18:40.039Z,24.10
2018-05-31T22:21:08.009Z,24.10
2018-05-31T22:23:35.959Z,24.10
2018-05-31T22:26:03.936Z,24.10
2018-05-31T22:28:31.901Z,24.10
2018-05-31T22:30:59.845Z,24.10
2018-05-31T22:33:27.828Z,24.10
2018-05-31T22:35:55.753Z,24.10
2018-05-31T22:38:24.479Z,24.10
2018-05-31T22:40:52.513Z,24.00
2018-05-31T22:43:20.423Z,24.00
2018-05-31T22:45:48.377Z,24.00
2018-05-31T22:48:16.394Z,24.00
2018-05-31T22:50:44.344Z,24.00
2018-05-31T22:53:12.325Z,23.70
2018-05-31T22:55:41.085Z,23.50
2018-05-31T22:58:09.049Z,23.50
2018-05-31T23:00:37.014Z,23.50
2018-05-31T23:03:05.089Z,23.30
2018-05-31T23:05:33.050Z,23.50
2018-05-31T23:08:01.055Z,23.50
2018-05-31T23:10:29.060Z,23.50
2018-05-31T23:12:57.762Z,23.50
2018-05-31T23:15:25.688Z,23.50
2018-05-31T23:17:54.065Z,23.20
2018-05-31T23:20:22.029Z,23.30
2018-05-31T23:22:49.952Z,23.30
2018-05-31T23:25:17.930Z,23.30
2018-05-31T23:27:45.878Z,23.20
2018-05-31T23:30:14.581Z,23.20
2018-05-31T23:32:42.571Z,23.20
2018-05-31T23:35:10.531Z,23.30
2018-05-31T23:37:38.504Z,23.50
2018-05-31T23:40:07.390Z,23.40
2018-05-31T23:42:35.421Z,23.20
2018-05-31T23:45:04.150Z,23.10
2018-05-31T23:47:32.097Z,23.10
2018-05-31T23:50:00.020Z,23.30
2018-05-31T23:52:28.000Z,23.30
2018-05-31T23:54:55.974Z,23.40
2018-05-31T23:57:23.949Z,23.20
2018-05-31T23:59:52.710Z,23.10
